This is the latest recevied weather packets stored in our database for station/object KA3BQE-13. If no packets are shown the sender has not sent any weather packets the latest 10 day(s).
| Time | Temp. | Humidity | Pressure | Rain* | Wind** | Luminosity | Snow |
|---|---|---|---|---|---|---|---|
| 1778104816 | 13.89° C | 45% | 1016.3 hPa | 0 mm | - | 195 W/m² | - |
| 1778104513 | 13.89° C | 42% | 1016.3 hPa | 0 mm | - | 369 W/m² | - |
| 1778104209 | 13.89° C | 43% | 1016.6 hPa | 0 mm | - | 261 W/m² | - |
| 1778103907 | 13.33° C | 48% | 1016.5 hPa | 0 mm | - | 247 W/m² | - |
| 1778103604 | 13.33° C | 47% | 1016.5 hPa | 0 mm | - | 212 W/m² | - |
| 1778103301 | 13.33° C | 46% | 1016.5 hPa | 0 mm | - | 211 W/m² | - |
| 1778102998 | 13.33° C | 44% | 1016.6 hPa | 0 mm | - | 231 W/m² | - |
| 1778102694 | 13.89° C | 44% | 1016.6 hPa | 0 mm | - | 284 W/m² | - |
| 1778102389 | 13.89° C | 44% | 1016.7 hPa | 0 mm | - | 323 W/m² | - |
| 1778102085 | 13.89° C | 49% | 1016.6 hPa | 0 mm | - | 286 W/m² | - |
| 1778101782 | 13.89° C | 46% | 1016.6 hPa | 0 mm | - | 345 W/m² | - |
| 1778101478 | 13.89° C | 44% | 1016.6 hPa | 0 mm | - | 289 W/m² | - |
| 1778101176 | 13.89° C | 45% | 1016.6 hPa | 0 mm | - | 249 W/m² | - |
| 1778100872 | 13.89° C | 47% | 1016.6 hPa | 0 mm | - | 287 W/m² | - |
| 1778100568 | 13.89° C | 45% | 1016.6 hPa | 0 mm | - | 333 W/m² | - |
| 1778100266 | 13.33° C | 46% | 1016.5 hPa | 0 mm | - | 297 W/m² | - |
| 1778099964 | 13.33° C | 45% | 1016.8 hPa | 0 mm | - | 283 W/m² | - |
| 1778099660 | 13.89° C | 45% | 1016.6 hPa | 0 mm | - | 354 W/m² | - |
| 1778099357 | 13.89° C | 46% | 1016.8 hPa | 0 mm | - | 403 W/m² | - |
| 1778099054 | 13.89° C | 47% | 1017 hPa | 0 mm | - | 527 W/m² | - |
| 1778098751 | 14.44° C | 42% | 1017 hPa | 0 mm | - | 423 W/m² | - |
| 1778098449 | 14.44° C | 44% | 1016.9 hPa | 0 mm | - | 573 W/m² | - |
| 1778098145 | 15.56° C | 41% | 1016.7 hPa | 0 mm | - | 853 W/m² | - |
| 1778097841 | 14.44° C | 46% | 1016.8 hPa | 0 mm | - | 521 W/m² | - |
| 1778097537 | 15° C | 44% | 1017 hPa | 0 mm | - | 309 W/m² | - |
* Rain latest hour (hover to see other rain measurements)
** Current wind speed in m/s (hover to see current wind gust speed)